Terminal Aerodrome Forecast
Issued by NWS

Home | Current Version | Previous Version | Text Only | Print | Product List | Glossary Off
Versions: 1 2 3 4 5 6 7 8 9 10 11 12 13 14 15 16 17

000
FTUS43 KICT 241100
TAFSLN
TAF
KSLN 241132Z 2412/2512 19015KT P6SM SCT150
     FM241500 20016G25KT P6SM SCT100
     FM242300 18015KT P6SM VCTS BKN070CB
     FM250600 19014KT P6SM BKN120=

USA.gov is the U.S. government's official web portal to all federal, state and local government web resources and services.